• Join FlightAware (Why Join?)
  • Login
  • US Flag 
04:14AM EDT


 

Airport Tracker/Info


-or-


 

Live Flight TrackerFlight Track Log ✈ N816BG ✈ 18-Jun-2014 ✈ KTVC - KOSU

Flight Track Log - Related Links

Times and Time Zones

All times are in EDT time to prevent confusion due to time zone crossing. See the N816BG flight status page for this flight to view local times or setup timezone preferences in your user account.

Time Position Orientation Groundspeed Altitude Reporting Facility
EDT Latitude Longitude Course Direction KTS MPH feet Rate Location/Type
11:14AM 44.7394 -85.4567 104° East 248 285 3,900  Level Minneapolis Center
11:15AM 44.7206 -85.3475 104° East 277 319 6,400 2,700 Climbing Minneapolis Center
11:16AM 44.6542 -85.2658 139° Southeast 316 364 9,500 3,000 Climbing Minneapolis Center
11:17AM 44.5717 -85.2289 162° South 311 358 12,700 3,180 Climbing Minneapolis Center
11:18AM 44.4731 -85.1781 160° South 313 360 16,100 2,520 Climbing Minneapolis Center
11:19AM 44.3861 -85.1328 160° South 325 374 17,900 1,620 Climbing Minneapolis Center
11:20AM 44.2956 -85.0892 161° South 338 389 19,500 1,500 Climbing Minneapolis Center
11:21AM 44.2019 -85.0419 160° South 351 404 21,100 1,500 Climbing Minneapolis Center
11:22AM 44.1064 -84.9936 160° South 360 414 22,600 1,320 Climbing Minneapolis Center
11:23AM 44.0106 -84.9456 160° South 372 428 23,900 1,320 Climbing Minneapolis Center
11:24AM 43.8869 -84.8844 160° South 386 444 25,400 1,260 Climbing Minneapolis Center
11:25AM 43.7814 -84.8328 161° South 397 457 26,600 1,020 Climbing Minneapolis Center
11:26AM 43.6761 -84.7789 160° South 399 459 27,600 1,020 Climbing Minneapolis Center
11:27AM 43.5683 -84.7269 161° South 405 466 28,800 1,200 Climbing Minneapolis Center
11:28AM 43.4603 -84.6739 160° South 406 467 30,100 1,020 Climbing Minneapolis Center
11:29AM 43.3542 -84.6214 160° South 406 467 31,000 420 Climbing Minneapolis Center
11:30AM 43.2433 -84.5678 161° South 414 476 31,000  Level Minneapolis Center
11:31AM 43.1267 -84.5117 161° South 433 498 31,000  Level Minneapolis Center
11:32AM 42.9817 -84.4411 160° South 447 514 31,000  Level Minneapolis Center
11:33AM 42.8664 -84.3864 161° South 452 520 31,000  Level Minneapolis Center
11:35AM 42.7125 -84.3122 160° South 469 540 31,000  Level Cleveland Center
11:36AM 42.5883 -84.2531 161° South 472 543 31,000  Level Cleveland Center
11:37AM 42.4414 -84.1836 161° South 472 543 31,000  Level Cleveland Center
11:38AM 42.3192 -84.1250 160° South 471 542 31,000  Level Cleveland Center
11:39AM 42.1978 -84.0686 161° South 469 540 31,000  Level Cleveland Center
11:40AM 42.0772 -84.0117 161° South 468 539 31,000  Level Cleveland Center
11:41AM 41.9564 -83.9564 161° South 466 536 31,000  Level Cleveland Center
11:42AM 41.8353 -83.9000 161° South 464 534 31,000  Level Cleveland Center
11:43AM 41.6906 -83.8325 161° South 462 532 31,000 -1,080 Level Cleveland Center
11:44AM 41.5703 -83.7769 161° South 462 532 28,900 -2,160 Descending Cleveland Center
11:45AM 41.4522 -83.7231 161° South 457 526 26,600 -2,280 Descending Cleveland Center
11:46AM 41.3378 -83.6708 161° South 442 509 24,300 -2,760 Descending Cleveland Center
11:47AM 41.2325 -83.6036 154° Southeast 429 494 21,000 -3,240 Descending Cleveland Center
11:48AM 41.1458 -83.4975 137° Southeast 427 491 17,700 -3,300 Descending Cleveland Center
11:49AM 41.0603 -83.3983 139° Southeast 390 449 14,300 -3,180 Descending Cleveland Center
11:50AM 40.9692 -83.3522 159° South 354 407 11,200 -1,620 Descending Cleveland Center
11:51AM 40.8808 -83.3344 171° South 326 375 11,000 -120 Descending Cleveland Center
11:52AM 40.7758 -83.3147 172° South 320 368 11,000 -420 Level Cleveland Center
11:53AM 40.6881 -83.2972 171° South 318 366 10,200 -540 Descending Cleveland Center
11:54AM 40.6019 -83.2800 171° South 317 365 10,000 -120 Descending Cleveland Center
11:55AM 40.5081 -83.2639 173° South 302 348 10,000  Level Indianapolis Center
11:55AM 40.5017 -83.2597 154° Southeast 309 356 10,000 -600 Level Indianapolis Center
11:56AM 40.4111 -83.2450 173° South 287 330 9,300 -1,080 Descending Indianapolis Center
11:57AM 40.3453 -83.2314 171° South 274 315 8,000 -1,620 Descending Indianapolis Center
11:58AM 40.3311 -83.2239 158° South 279 321 7,600 -2,220 Descending Indianapolis Center
11:58AM 40.2697 -83.1886 156° South 281 323 5,800 -2,040 Descending Indianapolis Center
11:59AM 40.2594 -83.1819 154° Southeast 277 319 5,500 -2,460 Descending Indianapolis Center
11:59AM 40.1981 -83.1469 156° South 278 320 3,300 -2,340 Descending Indianapolis Center
12:00PM 40.1886 -83.1406 153° Southeast 277 319 3,100 -960 Descending Indianapolis Center
12:01PM 40.1381 -83.0847 140° Southeast 254 292 2,100 -720 Descending Indianapolis Center
12:01PM 40.1056 -83.0386 133° Southeast 187 215 1,900 -300 Descending Indianapolis Center
12:02PM 40.0997 -83.0350 155° Southeast 225 259 1,800 -840 Descending Indianapolis Center
12:02PM 40.0767 -83.0531 211° Southwest 117 135 1,100 -600 Descending Indianapolis Center
12:03PM 40.0792 -83.0625 289° West 175 201 1,200 360 Climbing Indianapolis Center
12:05PM 40.0667 -83.0667 270° West  Level FlightAware Approximate